Latest Weather Observations for Warracknabeal Airport

IDV60801

Issued at 1:52 pm EDT Saturday 23 March 2019 (issued every 10 minutes, with the page automatically refreshed every 10 minutes)

About weather observations | Map of weather stations | Latest weather observations for VIC | Other Formats
Station Details ID: 078018 Name: WARRACKNABEAL AIRPORT Lat: -36.32 Lon: 142.42 Height: 118.3 m
Data from the previous 72 hours. | See also: Recent months at Warracknabeal Airport
Date/Time
EDT
Temp
°C
App
Temp
°C
Dew
Point
°C
Rel
Hum
%
Delta-T
°C
Wind Press
QNH
hPa
Press
MSL
hPa
Rain since
9am
mm
Dir  Spd
km/h
Gust
km/h
Spd
kts
Gust
kts
23/01:30pm 30.4 23.6 7.0 23 12.7 W 32 46 17 25 1007.5 1007.2 0.0
23/01:08pm 30.8 24.6 6.0 21 13.2 W 28 46 15 25 1007.8 1007.5 0.0
23/01:00pm 29.9 23.7 7.8 25 12.1 W 30 43 16 23 1007.7 1007.4 0.0
23/12:30pm 29.4 24.1 6.7 24 12.2 WNW 24 37 13 20 1007.8 1007.5 0.0
23/12:00pm 28.6 24.5 11.6 34 9.9 W 24 32 13 17 1008.0 1007.7 0.0
23/11:30am 28.1 24.5 14.3 42 8.3 W 26 33 14 18 1007.9 1007.6 0.0
23/11:00am 27.5 24.8 14.5 45 7.9 W 22 32 12 17 1008.0 1007.7 0.0
23/10:30am 26.3 22.7 14.1 47 7.3 W 26 37 14 20 1008.1 1007.8 0.0
23/10:00am 26.1 23.3 12.5 42 7.9 W 19 26 10 14 1007.7 1007.4 0.0
23/09:30am 25.0 21.9 11.6 43 7.6 NNW 19 28 10 15 1007.7 1007.4 0.0
23/09:00am 23.4 21.5 13.0 52 6.0 N 15 19 8 10 1007.5 1007.2 0.0
23/08:30am 23.7 21.5 13.3 52 6.1 NNE 17 20 9 11 1007.2 1006.9 0.0
23/08:00am 23.5 21.0 13.4 53 5.9 NNE 19 22 10 12 1006.9 1006.6 0.0
23/07:30am 23.2 20.6 13.7 55 5.6 ENE 20 24 11 13 1006.5 1006.2 0.0
23/07:00am 23.4 20.4 13.6 54 5.7 ENE 22 26 12 14 1006.7 1006.4 0.0
23/06:30am 23.6 21.1 13.5 53 5.9 ENE 19 24 10 13 1006.8 1006.5 0.0
23/06:00am 23.5 21.3 13.4 53 5.9 ENE 17 20 9 11 1006.8 1006.5 0.0
23/05:30am 23.2 22.3 13.7 55 5.6 N 11 13 6 7 1007.3 1007.0 0.0
23/05:00am 23.7 23.0 13.3 52 6.1 N 9 11 5 6 1007.4 1007.1 0.0
23/04:30am 24.6 23.2 13.5 50 6.5 N 13 15 7 8 1007.6 1007.3 0.0
23/04:00am 25.2 22.5 13.4 48 6.9 N 20 26 11 14 1007.7 1007.4 0.0
23/03:30am 25.6 21.4 13.5 47 7.1 NE 28 35 15 19 1007.3 1007.0 0.0
23/03:00am 25.7 21.8 13.2 46 7.4 NE 26 33 14 18 1007.6 1007.3 0.0
23/02:30am 25.4 21.0 12.9 45 7.3 NE 28 33 15 18 1007.6 1007.3 0.0
23/02:00am 25.5 21.0 12.7 45 7.5 NE 28 35 15 19 1007.7 1007.4 0.0
23/01:30am 25.3 21.3 11.8 43 7.7 NE 24 32 13 17 1007.9 1007.6 0.0
23/01:00am 25.7 20.6 10.7 39 8.5 NE 28 35 15 19 1008.1 1007.8 0.0
23/12:30am 26.1 20.4 9.9 36 9.0 NE 30 39 16 21 1008.3 1008.0 0.0
23/12:00am 26.5 21.5 9.4 34 9.5 NE 26 35 14 19 1008.4 1008.1 0.0
 
Date/Time
EDT
Temp
°C
App
Temp
°C
Dew
Point
°C
Rel
Hum
%
Delta-T
°C
Wind Press
QNH
hPa
Press
MSL
hPa
Rain since
9am
mm
Dir  Spd
km/h
Gust
km/h
Spd
kts
Gust
kts
22/11:30pm 26.7 21.7 9.5 34 9.5 NE 26 35 14 19 1008.6 1008.3 0.0
22/11:00pm 26.4 22.2 9.7 35 9.3 ENE 22 28 12 15 1008.8 1008.5 0.0
22/10:30pm 26.8 22.1 9.2 33 9.7 ENE 24 30 13 16 1009.1 1008.8 0.0
22/10:00pm 23.7 20.8 8.2 37 8.3 NE 13 15 7 8 1009.1 1008.8 0.0
22/09:30pm 24.6 22.2 8.5 36 8.7 NE 11 15 6 8 1009.3 1009.0 0.0
22/09:00pm 25.0 22.6 8.5 35 8.9 NE 11 13 6 7 1009.0 1008.7 0.0
22/08:30pm 25.7 23.2 8.2 33 9.4 NE 11 11 6 6 1008.7 1008.4 0.0
22/08:00pm 27.4 25.1 7.3 28 10.8 NE 9 11 5 6 1008.8 1008.5 0.0
22/07:30pm 30.7 28.9 7.8 24 12.6 NE 7 9 4 5 1008.8 1008.5 0.0
22/07:00pm 32.2 30.3 9.1 24 13.1 NE 9 15 5 8 1008.8 1008.5 0.0
22/06:30pm 33.0 30.6 8.5 22 13.8 N 11 20 6 11 1008.7 1008.4 0.0
22/06:00pm 33.4 29.9 8.8 22 14.0 N 17 26 9 14 1008.9 1008.6 0.0
22/05:30pm 33.5 31.6 8.9 22 14.0 N 9 19 5 10 1008.9 1008.6 0.0
22/05:00pm 33.7 30.6 9.0 22 14.1 N 15 28 8 15 1009.2 1008.9 0.0
22/04:30pm 33.8 32.5 9.8 23 13.8 NNW 7 13 4 7 1009.6 1009.3 0.0
22/04:00pm 33.2 31.9 9.9 24 13.4 NE 7 15 4 8 1010.0 1009.7 0.0
22/03:30pm 32.9 30.7 10.9 26 12.8 NNW 13 20 7 11 1010.4 1010.1 0.0
22/03:00pm 32.6 30.7 11.7 28 12.3 N 13 20 7 11 1011.0 1010.7 0.0
22/02:30pm 32.4 30.1 11.6 28 12.2 ENE 15 26 8 14 1011.6 1011.3 0.0
22/02:00pm 31.1 29.5 11.5 30 11.5 NE 11 19 6 10 1012.1 1011.8 0.0
22/01:30pm 31.0 29.8 12.8 32 10.9 ENE 11 17 6 9 1012.4 1012.1 0.0
22/01:00pm 30.4 28.9 11.9 32 10.9 ENE 11 19 6 10 1012.9 1012.6 0.0
22/12:30pm 28.7 28.4 14.5 42 8.6 E 9 17 5 9 1013.2 1012.9 0.0
22/12:00pm 27.9 27.2 15.5 46 7.6 E 13 17 7 9 1013.6 1013.3 0.0
22/11:30am 26.8 26.1 15.5 50 6.9 ENE 13 19 7 10 1013.9 1013.6 0.0
22/11:00am 26.0 25.0 15.7 53 6.3 E 15 20 8 11 1014.1 1013.8 0.0
22/10:30am 24.5 23.2 15.7 58 5.4 ESE 17 24 9 13 1014.2 1013.9 0.0
22/10:00am 22.8 21.2 15.9 65 4.2 SSE 19 24 10 13 1014.5 1014.2 0.0
22/09:30am 21.2 19.4 16.0 72 3.1 SSE 20 26 11 14 1014.5 1014.2 0.0
22/09:00am 19.1 17.2 15.8 81 2.0 SSE 20 28 11 15 1014.5 1014.2 -
22/08:30am 18.4 16.6 15.6 84 1.7 SSE 19 26 10 14 1014.4 1014.1 -
22/08:00am 17.2 16.1 15.4 89 1.1 SSE 15 19 8 10 1014.4 1014.1 -
22/07:30am 17.1 15.6 15.3 89 1.1 SE 17 20 9 11 1014.1 1013.8 -
22/07:00am 17.0 15.5 15.2 89 1.1 SE 17 20 9 11 1013.9 1013.6 -
22/06:30am 16.9 15.3 15.1 89 1.0 SSE 17 22 9 12 1013.8 1013.5 -
22/06:00am 16.8 15.2 15.0 89 1.0 SSE 17 20 9 11 1013.7 1013.4 -
22/05:30am 17.1 15.5 15.1 88 1.2 SSE 17 20 9 11 1013.6 1013.3 -
22/05:00am 17.4 15.9 15.2 87 1.3 SSE 17 20 9 11 1013.7 1013.4 -
22/04:30am 18.0 16.2 15.4 85 1.5 SSE 19 24 10 13 1013.6 1013.3 -
22/04:00am 18.1 16.3 15.5 85 1.5 SSE 19 28 10 15 1013.6 1013.3 -
22/03:30am 18.5 16.7 15.6 83 1.7 SSE 19 24 10 13 1013.7 1013.4 -
22/03:00am 18.9 17.2 15.8 82 1.8 SSE 19 24 10 13 1013.9 1013.6 0.0
22/02:30am 19.2 17.0 15.9 81 2.0 S 22 28 12 15 1014.0 1013.7 0.0
22/02:00am 19.2 17.4 15.9 81 2.0 SSE 20 28 11 15 1014.0 1013.7 0.0
22/01:30am 19.1 17.8 15.8 81 2.0 S 17 22 9 12 1014.5 1014.2 0.0
22/01:00am 19.1 18.1 15.6 80 2.1 S 15 19 8 10 1014.7 1014.4 0.0
22/12:30am 19.5 17.7 15.6 78 2.3 S 19 26 10 14 1014.7 1014.4 0.0
22/12:00am 20.0 18.0 15.4 75 2.7 S 20 28 11 15 1014.9 1014.6 0.0
 
Date/Time
EDT
Temp
°C
App
Temp
°C
Dew
Point
°C
Rel
Hum
%
Delta-T
°C
Wind Press
QNH
hPa
Press
MSL
hPa
Rain since
9am
mm
Dir  Spd
km/h
Gust
km/h
Spd
kts
Gust
kts
21/11:30pm 20.5 18.5 15.5 73 3.0 SSE 20 30 11 16 1014.6 1014.3 0.0
21/11:00pm 21.2 19.4 15.5 70 3.4 S 19 24 10 13 1014.8 1014.5 0.0
21/10:30pm 22.0 20.2 15.6 67 3.8 S 19 24 10 13 1014.5 1014.2 0.0
21/10:00pm 23.1 21.2 14.1 57 5.3 S 17 22 9 12 1014.3 1014.0 0.0
21/09:30pm 23.5 21.4 11.2 46 6.9 SSW 13 17 7 9 1013.9 1013.6 0.0
21/09:00pm 22.7 21.4 9.8 44 7.0 SSW 7 9 4 5 1013.6 1013.3 0.0
21/08:30pm 23.5 22.1 9.5 41 7.6 SSW 7 9 4 5 1013.5 1013.2 0.0
21/08:00pm 25.6 24.5 9.8 37 8.8 SSW 6 7 3 4 1013.4 1013.1 0.0
21/07:30pm 26.6 25.5 9.9 35 9.3 SSW 6 7 3 4 1013.3 1013.0 0.0
21/07:00pm 27.6 25.9 9.9 33 9.9 SSW 9 13 5 7 1013.2 1012.9 0.0
21/06:30pm 28.0 25.6 8.8 30 10.6 SW 11 15 6 8 1013.2 1012.9 0.0
21/06:00pm 28.3 24.9 7.5 27 11.2 SW 15 20 8 11 1013.2 1012.9 0.0
21/05:30pm 28.5 25.5 9.2 30 10.7 S 15 20 8 11 1013.3 1013.0 0.0
21/05:00pm 28.7 25.9 9.9 31 10.6 SW 15 20 8 11 1013.4 1013.1 0.0
21/04:30pm 29.2 25.7 8.8 28 11.3 SSW 17 22 9 12 1013.5 1013.2 0.0
21/04:00pm 29.5 26.3 10.1 30 11.0 SSW 17 24 9 13 1013.6 1013.3 0.0
21/03:30pm 29.0 27.8 11.6 34 10.1 SSW 9 22 5 12 1013.9 1013.6 0.0
21/03:00pm 28.7 26.2 12.2 36 9.7 SSW 17 24 9 13 1014.1 1013.8 0.0
21/02:30pm 27.7 25.4 11.7 37 9.2 S 15 28 8 15 1014.5 1014.2 0.0
21/02:00pm 28.2 26.5 12.5 37 9.2 S 13 24 7 13 1014.9 1014.6 0.0
21/01:30pm 28.1 25.9 12.0 36 9.4 SSE 15 28 8 15 1015.2 1014.9 0.0
21/01:00pm 27.4 25.2 12.2 39 8.8 SSW 15 24 8 13 1015.7 1015.5 0.0
21/12:30pm 26.9 25.7 14.0 45 7.7 SSW 13 22 7 12 1016.1 1015.9 0.0
21/12:00pm 26.1 24.8 14.9 50 6.8 S 15 22 8 12 1016.3 1016.1 0.0
21/11:30am 24.6 23.1 14.1 52 6.2 S 15 22 8 12 1016.6 1016.4 0.0
21/11:00am 24.1 22.7 15.6 59 5.1 S 17 26 9 14 1016.6 1016.4 0.0
21/10:30am 23.3 21.5 15.9 63 4.5 SSE 20 26 11 14 1016.5 1016.3 0.0
21/10:00am 21.8 19.6 15.9 69 3.6 S 22 28 12 15 1016.4 1016.2 0.0
21/09:30am 20.4 18.2 16.0 76 2.6 SSE 22 32 12 17 1016.2 1016.0 0.0
21/09:00am 18.3 17.5 16.1 87 1.3 S 15 19 8 10 1016.1 1015.9 0.0
21/08:30am 15.1 14.7 14.1 94 0.6 S 9 11 5 6 1015.8 1015.6 0.0
21/08:00am 14.0 13.3 13.2 95 0.4 S 9 13 5 7 1015.5 1015.3 0.0
21/07:30am 14.9 13.7 14.1 95 0.5 S 13 15 7 8 1015.1 1014.8 0.0
21/07:00am 15.4 14.0 14.4 94 0.6 S 15 17 8 9 1014.7 1014.4 0.0
21/06:30am 15.3 13.8 14.3 94 0.6 S 15 17 8 9 1014.5 1014.2 0.0
21/06:00am 15.4 14.3 14.4 94 0.6 S 13 17 7 9 1014.2 1013.9 0.0
21/05:30am 15.8 14.5 14.7 93 0.6 S 15 19 8 10 1014.0 1013.7 0.0
21/05:00am 15.8 14.5 14.8 94 0.6 SSE 15 17 8 9 1013.9 1013.6 0.0
21/04:30am 16.1 15.3 15.0 93 0.6 SSE 13 19 7 10 1013.9 1013.6 0.0
21/04:00am 16.5 15.0 15.2 92 0.8 SSE 17 20 9 11 1013.9 1013.6 0.0
21/03:30am 16.8 15.3 15.3 91 0.9 SSE 17 20 9 11 1014.0 1013.7 0.0
21/03:00am 17.1 15.3 15.4 90 1.0 S 19 24 10 13 1014.2 1013.9 0.0
21/02:30am 17.4 15.4 15.6 89 1.1 SSE 20 24 11 13 1014.5 1014.2 0.0
21/02:00am 17.6 15.9 15.8 89 1.1 S 19 26 10 14 1014.8 1014.5 0.0
21/01:30am 17.6 15.8 15.6 88 1.2 S 19 24 10 13 1015.0 1014.7 0.0
21/01:00am 17.7 16.3 15.5 87 1.3 S 17 20 9 11 1015.2 1014.9 0.0
21/12:30am 18.0 15.9 15.3 84 1.6 S 20 26 11 14 1015.2 1014.9 0.0
21/12:00am 18.5 15.6 15.2 81 1.9 S 24 33 13 18 1015.3 1015.0 0.0
 
Date/Time
EDT
Temp
°C
App
Temp
°C
Dew
Point
°C
Rel
Hum
%
Delta-T
°C
Wind Press
QNH
hPa
Press
MSL
hPa
Rain since
9am
mm
Dir  Spd
km/h
Gust
km/h
Spd
kts
Gust
kts
20/11:30pm 19.1 16.2 15.2 78 2.3 S 24 30 13 16 1015.2 1014.9 0.0
20/11:00pm 19.9 17.5 15.5 76 2.6 SSE 22 32 12 17 1014.9 1014.6 0.0
20/10:30pm 20.8 18.1 15.6 72 3.1 S 24 32 13 17 1014.8 1014.5 0.0
20/10:00pm 21.9 19.5 15.5 67 3.8 SSE 22 32 12 17 1014.4 1014.1 0.0
20/09:30pm 23.4 20.8 13.8 54 5.6 SSE 20 28 11 15 1014.2 1013.9 0.0
20/09:00pm 23.8 21.6 12.1 48 6.7 S 15 19 8 10 1013.8 1013.5 0.0
20/08:30pm 24.9 22.9 11.5 43 7.6 SSE 13 19 7 10 1013.4 1013.1 0.0
20/08:00pm 25.7 22.0 9.5 36 8.9 SSW 19 24 10 13 1013.0 1012.7 0.0
20/07:30pm 26.5 23.8 8.9 33 9.6 SSW 13 15 7 8 1012.7 1012.4 0.0
20/07:00pm 27.6 24.3 8.0 29 10.6 SSW 15 20 8 11 1012.6 1012.3 0.0
20/06:30pm 29.2 24.6 6.6 24 12.1 SSW 20 28 11 15 1012.6 1012.3 0.0
20/06:00pm 29.6 25.4 8.1 26 11.8 SSW 20 30 11 16 1012.5 1012.2 0.0
20/05:30pm 30.1 26.0 7.9 25 12.2 SSW 19 28 10 15 1012.5 1012.2 0.0
20/05:00pm 30.1 25.7 7.3 24 12.4 SSW 20 28 11 15 1012.5 1012.2 0.0
20/04:30pm 30.3 27.3 9.2 27 11.8 WSW 15 26 8 14 1012.6 1012.3 0.0
20/04:00pm 30.3 26.9 9.2 27 11.9 SSW 17 28 9 15 1012.8 1012.5 0.0
20/03:30pm 30.6 26.6 8.3 25 12.4 SSW 19 24 10 13 1013.1 1012.8 0.0
20/03:00pm 29.3 27.0 10.4 31 10.8 SW 13 24 7 13 1013.3 1013.0 0.0
20/02:30pm 28.3 25.6 10.5 33 10.1 SW 15 24 8 13 1013.9 1013.6 0.0
20/02:00pm 27.9 25.8 11.0 35 9.7 WSW 13 28 7 15 1014.4 1014.1 0.0

Other formats

Comma delimited format used in spreadsheet applications
http://www.bom.gov.au/fwo/IDV60801/IDV60801.94920.axf

JavaScript Object Notation format (JSON) in row-major order
http://www.bom.gov.au/fwo/IDV60801/IDV60801.94920.json

Data quality

Most of these data are generated automatically and are frequently updated. Quality checks on data are not normally performed. It is possible for incorrect values to appear. Refer to information at About Latest Weather Observations and please check the disclaimer before using these data.